createdAt,value
2019-05-17T00:00:57.146Z,94.91
2019-05-17T00:03:26.938Z,94.48
2019-05-17T00:05:57.037Z,94.77
2019-05-17T00:08:34.369Z,94.67
2019-05-17T00:10:57.040Z,94.52
2019-05-17T00:13:26.832Z,94.05
2019-05-17T00:15:56.623Z,93.92
2019-05-17T00:18:26.454Z,93.54
2019-05-17T00:20:56.985Z,93.38
2019-05-17T00:23:26.882Z,94.32
2019-05-17T00:25:56.405Z,94.15
2019-05-17T00:28:26.906Z,94.15
2019-05-17T00:30:57.139Z,93.76
2019-05-17T00:33:27.205Z,93.95
2019-05-17T00:35:56.242Z,93.47
2019-05-17T00:38:27.222Z,94.01
2019-05-17T00:40:56.484Z,93.58
2019-05-17T00:43:26.245Z,93.70
2019-05-17T00:45:57.286Z,93.57
2019-05-17T00:48:26.456Z,93.39
2019-05-17T00:51:01.253Z,92.83
2019-05-17T00:53:26.899Z,93.74
2019-05-17T00:55:57.348Z,93.36
2019-05-17T00:58:26.346Z,94.34
2019-05-17T01:00:57.153Z,94.04
2019-05-17T01:03:26.939Z,93.07
2019-05-17T01:05:57.243Z,93.78
2019-05-17T01:08:26.547Z,93.62
2019-05-17T01:10:56.574Z,93.52
2019-05-17T01:13:26.678Z,93.36
2019-05-17T01:15:56.729Z,92.88
2019-05-17T01:18:26.931Z,93.15
2019-05-17T01:20:56.798Z,93.50
2019-05-17T01:23:27.111Z,93.53
2019-05-17T01:25:56.717Z,93.38
2019-05-17T01:28:26.974Z,94.36
2019-05-17T01:30:56.953Z,93.89
2019-05-17T01:33:26.447Z,93.88
2019-05-17T01:35:57.215Z,93.12
2019-05-17T01:38:26.986Z,93.46
2019-05-17T01:40:56.458Z,92.99
2019-05-17T01:43:27.201Z,93.24
2019-05-17T01:45:57.279Z,92.56
2019-05-17T01:48:27.088Z,92.60
2019-05-17T01:50:56.810Z,92.87
2019-05-17T01:53:27.061Z,92.96
2019-05-17T01:55:56.841Z,92.69
2019-05-17T01:58:26.993Z,92.59
2019-05-17T02:00:57.333Z,92.71
2019-05-17T02:03:26.796Z,92.41
2019-05-17T02:05:56.654Z,92.93
2019-05-17T02:08:26.437Z,93.03
2019-05-17T02:10:57.226Z,92.81
2019-05-17T02:13:26.789Z,93.00
2019-05-17T02:15:56.445Z,92.88
2019-05-17T02:18:26.618Z,92.82
2019-05-17T02:20:57.075Z,92.59
2019-05-17T02:23:27.036Z,93.14
2019-05-17T02:25:57.135Z,93.35
2019-05-17T02:28:25.786Z,93.31
2019-05-17T02:30:54.468Z,93.56
2019-05-17T02:33:23.626Z,92.97
2019-05-17T02:35:53.628Z,92.70
2019-05-17T02:38:22.536Z,92.83
2019-05-17T02:40:53.627Z,93.29
2019-05-17T02:43:23.603Z,92.67
2019-05-17T02:45:52.751Z,92.83
2019-05-17T02:48:23.345Z,92.68
2019-05-17T02:50:53.293Z,92.35
2019-05-17T02:53:23.012Z,92.36
2019-05-17T02:55:54.004Z,92.17
2019-05-17T02:58:23.372Z,92.49
2019-05-17T03:00:53.190Z,92.12
2019-05-17T03:03:23.643Z,92.29
2019-05-17T03:05:53.546Z,92.62
2019-05-17T03:08:23.435Z,93.15
2019-05-17T03:10:55.265Z,92.91
2019-05-17T03:13:23.722Z,92.92
2019-05-17T03:15:52.913Z,93.22
2019-05-17T03:18:22.892Z,93.41
2019-05-17T03:20:52.475Z,93.91
2019-05-17T03:23:23.445Z,94.12
2019-05-17T03:25:52.397Z,93.70
2019-05-17T03:28:23.562Z,93.55
2019-05-17T03:30:56.877Z,93.04
2019-05-17T03:33:27.092Z,93.40
2019-05-17T03:35:56.970Z,93.25
2019-05-17T03:38:25.765Z,92.98
2019-05-17T03:41:12.006Z,92.89
2019-05-17T03:43:24.428Z,92.99
2019-05-17T03:45:54.516Z,92.96
2019-05-17T03:48:22.946Z,92.30
2019-05-17T03:50:53.139Z,92.42
2019-05-17T03:53:22.949Z,92.41
2019-05-17T03:55:54.045Z,92.13
2019-05-17T03:58:23.477Z,92.14
2019-05-17T04:00:54.571Z,91.63
2019-05-17T04:03:24.618Z,91.64
2019-05-17T04:05:53.373Z,90.84
2019-05-17T04:08:22.861Z,91.57
2019-05-17T04:10:52.966Z,90.77
2019-05-17T04:13:23.461Z,91.40
2019-05-17T04:15:53.377Z,91.52
2019-05-17T04:18:23.511Z,91.45
2019-05-17T04:20:52.793Z,91.43
2019-05-17T04:23:23.292Z,91.62
2019-05-17T04:25:53.020Z,92.30
2019-05-17T04:28:22.982Z,91.28
2019-05-17T04:30:53.192Z,91.89
2019-05-17T04:33:23.199Z,92.13
2019-05-17T04:35:54.068Z,91.58
2019-05-17T04:38:23.687Z,91.70
2019-05-17T04:40:55.309Z,91.21
2019-05-17T04:43:23.828Z,91.12
2019-05-17T04:45:53.681Z,91.98
2019-05-17T04:48:23.235Z,90.35
2019-05-17T04:50:53.700Z,90.44
2019-05-17T04:53:23.332Z,90.61
2019-05-17T04:55:54.045Z,90.30
2019-05-17T04:58:23.187Z,90.83
2019-05-17T05:00:53.698Z,90.29
2019-05-17T05:03:23.092Z,90.35
2019-05-17T05:05:53.594Z,90.04
2019-05-17T05:08:22.530Z,89.93
2019-05-17T05:10:53.488Z,89.85
2019-05-17T05:13:22.809Z,89.65
2019-05-17T05:15:52.197Z,89.48
2019-05-17T05:18:22.179Z,89.35
2019-05-17T05:20:52.673Z,89.76
2019-05-17T05:23:23.893Z,89.76
2019-05-17T05:25:54.153Z,89.51
2019-05-17T05:28:22.670Z,89.67
2019-05-17T05:30:52.703Z,89.17
2019-05-17T05:33:22.155Z,88.95
2019-05-17T05:35:51.685Z,89.21
2019-05-17T05:38:21.732Z,89.06
2019-05-17T05:40:52.340Z,89.35
2019-05-17T05:43:22.770Z,90.38
2019-05-17T05:45:53.468Z,89.89
2019-05-17T05:48:21.789Z,89.75
2019-05-17T05:50:53.278Z,90.17
2019-05-17T05:53:21.979Z,90.41
2019-05-17T05:55:51.830Z,90.34
2019-05-17T05:58:23.587Z,89.03
2019-05-17T06:00:52.914Z,89.33
2019-05-17T06:03:23.289Z,89.59
2019-05-17T06:05:52.484Z,89.24
2019-05-17T06:08:22.711Z,88.40
2019-05-17T06:10:53.132Z,88.69
2019-05-17T06:13:21.901Z,88.55
2019-05-17T06:15:54.673Z,86.05
2019-05-17T06:18:25.057Z,86.39
2019-05-17T06:20:53.477Z,86.40
2019-05-17T06:23:23.446Z,85.59
2019-05-17T06:25:54.135Z,84.12
2019-05-17T06:28:25.201Z,85.16
2019-05-17T06:30:55.802Z,84.71
2019-05-17T06:33:30.886Z,83.82
2019-05-17T06:36:02.677Z,84.09
2019-05-17T06:38:33.129Z,83.53
2019-05-17T06:41:06.569Z,81.94
2019-05-17T06:43:38.485Z,83.79
2019-05-17T06:46:06.907Z,84.07
2019-05-17T06:48:43.970Z,84.08
2019-05-17T06:51:13.581Z,83.36
2019-05-17T06:53:46.401Z,83.07
2019-05-17T06:56:14.939Z,82.91
2019-05-17T06:58:43.448Z,81.63
2019-05-17T07:01:15.967Z,82.11
2019-05-17T07:03:44.473Z,81.83
2019-05-17T07:06:14.549Z,81.57
2019-05-17T07:08:43.071Z,81.05
2019-05-17T07:11:11.746Z,79.64
2019-05-17T07:13:40.244Z,80.44
2019-05-17T07:16:10.221Z,80.41
2019-05-17T07:18:39.977Z,81.92
2019-05-17T07:21:10.034Z,79.11
2019-05-17T07:23:40.343Z,80.83
2019-05-17T07:26:11.815Z,80.31
2019-05-17T07:28:40.444Z,80.45
2019-05-17T07:31:10.127Z,79.85
2019-05-17T07:33:39.883Z,80.45
2019-05-17T07:36:10.199Z,80.01
2019-05-17T07:38:39.638Z,80.22
2019-05-17T07:41:10.138Z,79.60
2019-05-17T07:43:40.303Z,80.38
2019-05-17T07:46:09.580Z,81.82
2019-05-17T07:48:40.305Z,81.10
2019-05-17T07:51:10.138Z,80.23
2019-05-17T07:53:40.099Z,80.16
2019-05-17T07:56:10.448Z,79.67
2019-05-17T07:58:40.389Z,80.04
2019-05-17T08:01:10.030Z,78.46
2019-05-17T08:03:40.610Z,79.36
2019-05-17T08:06:10.546Z,79.28
2019-05-17T08:08:40.975Z,79.12
2019-05-17T08:11:10.581Z,77.61
2019-05-17T08:13:39.864Z,77.88
2019-05-17T08:16:10.292Z,79.93
2019-05-17T08:18:40.235Z,78.20
2019-05-17T08:21:10.402Z,77.98
2019-05-17T08:23:40.097Z,77.71
2019-05-17T08:26:10.495Z,77.24
2019-05-17T08:28:40.398Z,78.26
2019-05-17T08:31:09.924Z,78.21
2019-05-17T08:33:40.472Z,76.80
2019-05-17T08:36:09.274Z,77.38
2019-05-17T08:38:39.387Z,75.22
2019-05-17T08:41:10.343Z,76.84
2019-05-17T08:43:45.746Z,76.36
2019-05-17T08:46:10.542Z,75.28
2019-05-17T08:48:40.187Z,75.23
2019-05-17T08:51:10.779Z,75.86
2019-05-17T08:53:39.891Z,75.54
2019-05-17T08:56:10.213Z,75.09
2019-05-17T08:58:40.351Z,74.37
2019-05-17T09:01:11.253Z,75.76
2019-05-17T09:03:41.038Z,75.39
2019-05-17T09:06:12.448Z,75.20
2019-05-17T09:08:40.561Z,75.81
2019-05-17T09:11:09.880Z,74.63
2019-05-17T09:13:41.258Z,75.14
2019-05-17T09:16:10.711Z,73.96
2019-05-17T09:18:39.561Z,73.90
2019-05-17T09:21:09.713Z,73.64
2019-05-17T09:23:39.624Z,73.34
2019-05-17T09:26:11.318Z,72.63
2019-05-17T09:28:39.769Z,72.64
2019-05-17T09:31:10.370Z,72.89
2019-05-17T09:33:40.457Z,73.64
2019-05-17T09:36:10.123Z,73.10
2019-05-17T09:38:40.377Z,72.56
2019-05-17T09:41:09.435Z,72.70
2019-05-17T09:43:40.067Z,72.76
2019-05-17T09:46:10.696Z,73.04
2019-05-17T09:48:39.819Z,73.45
2019-05-17T09:51:10.281Z,74.00
2019-05-17T09:53:40.143Z,74.97
2019-05-17T09:56:09.959Z,73.85
2019-05-17T09:58:39.672Z,74.58
2019-05-17T10:01:09.437Z,74.21
2019-05-17T10:03:39.752Z,72.52
2019-05-17T10:06:09.641Z,72.18
2019-05-17T10:08:39.417Z,71.90
2019-05-17T10:11:11.262Z,72.17
2019-05-17T10:13:38.115Z,70.91
2019-05-17T10:16:10.109Z,72.87
2019-05-17T10:18:40.089Z,71.32
2019-05-17T10:21:10.484Z,72.34
2019-05-17T10:23:40.648Z,72.30
2019-05-17T10:26:10.723Z,71.64
2019-05-17T10:28:40.026Z,71.42
2019-05-17T10:31:11.251Z,71.22
2019-05-17T10:33:40.086Z,71.57
2019-05-17T10:36:08.628Z,71.27
2019-05-17T10:38:39.623Z,71.50
2019-05-17T10:41:10.114Z,70.51
2019-05-17T10:43:39.289Z,71.52
2019-05-17T10:46:10.339Z,71.72
2019-05-17T10:48:41.125Z,71.72
2019-05-17T10:51:10.088Z,71.40
2019-05-17T10:53:40.313Z,71.25
2019-05-17T10:56:09.986Z,70.23
2019-05-17T10:58:39.975Z,68.71
2019-05-17T11:01:10.297Z,67.59
2019-05-17T11:03:39.715Z,67.14
2019-05-17T11:06:10.819Z,67.60
2019-05-17T11:08:38.690Z,68.59
2019-05-17T11:11:07.104Z,68.82
2019-05-17T11:13:35.611Z,68.20
2019-05-17T11:16:04.082Z,68.68
2019-05-17T11:18:32.547Z,69.31
2019-05-17T11:21:01.013Z,68.94
2019-05-17T11:23:29.532Z,69.12
2019-05-17T11:25:59.530Z,69.91
2019-05-17T11:28:28.105Z,69.19
2019-05-17T11:31:02.653Z,68.61
2019-05-17T11:33:31.094Z,69.14
2019-05-17T11:35:59.641Z,68.96
2019-05-17T11:38:28.072Z,69.13
2019-05-17T11:40:56.549Z,68.95
2019-05-17T11:43:25.055Z,69.22
2019-05-17T11:45:53.488Z,69.49
2019-05-17T11:48:21.939Z,70.32
2019-05-17T11:50:50.388Z,69.31
2019-05-17T11:53:20.492Z,69.53
2019-05-17T11:55:49.035Z,68.63
2019-05-17T11:58:17.481Z,68.48
2019-05-17T12:00:45.902Z,68.12
2019-05-17T12:03:14.355Z,66.81
2019-05-17T12:05:42.905Z,66.79
2019-05-17T12:08:11.339Z,64.60
2019-05-17T12:10:39.824Z,64.85
2019-05-17T12:13:08.368Z,63.71
2019-05-17T12:15:44.817Z,62.52
2019-05-17T12:18:07.005Z,61.07
2019-05-17T12:20:38.808Z,62.92
2019-05-17T12:23:07.244Z,64.70
2019-05-17T12:25:35.774Z,63.97
2019-05-17T12:28:04.292Z,64.11
2019-05-17T12:30:32.933Z,64.03
2019-05-17T12:33:01.374Z,63.44
2019-05-17T12:35:29.847Z,61.67
2019-05-17T12:37:59.479Z,62.74
2019-05-17T12:40:29.657Z,63.97
2019-05-17T12:42:58.093Z,63.56
2019-05-17T12:45:26.671Z,64.90
2019-05-17T12:47:55.126Z,65.63
2019-05-17T12:50:23.652Z,65.46
2019-05-17T12:52:55.174Z,66.07
2019-05-17T12:55:23.655Z,65.49
2019-05-17T12:57:52.092Z,64.50
2019-05-17T13:00:21.179Z,64.85
2019-05-17T13:02:50.232Z,63.92
2019-05-17T13:05:18.837Z,64.05
2019-05-17T13:07:47.261Z,63.52
2019-05-17T13:10:18.275Z,61.92
2019-05-17T13:12:46.751Z,60.98
2019-05-17T13:15:23.074Z,60.42
2019-05-17T13:17:46.693Z,58.95
2019-05-17T13:20:16.598Z,59.70
2019-05-17T13:22:45.124Z,59.90
2019-05-17T13:25:13.869Z,60.85
2019-05-17T13:27:47.367Z,59.97
2019-05-17T13:30:15.648Z,61.77
2019-05-17T13:32:44.145Z,61.63
2019-05-17T13:35:13.693Z,60.72
2019-05-17T13:37:42.111Z,60.83
2019-05-17T13:40:12.999Z,61.69
2019-05-17T13:42:41.046Z,60.98
2019-05-17T13:45:10.933Z,61.50
2019-05-17T13:47:39.407Z,61.12
2019-05-17T13:50:08.737Z,60.62
2019-05-17T13:52:37.281Z,61.39
2019-05-17T13:55:07.037Z,61.02
2019-05-17T13:57:35.506Z,61.67
2019-05-17T14:00:07.462Z,61.25
2019-05-17T14:02:35.912Z,62.43
2019-05-17T14:05:06.780Z,61.52
2019-05-17T14:07:34.480Z,61.93
2019-05-17T14:10:03.368Z,61.99
2019-05-17T14:12:31.778Z,62.21
2019-05-17T14:15:00.236Z,61.70
2019-05-17T14:17:29.035Z,62.10
2019-05-17T14:19:57.477Z,60.83
2019-05-17T14:22:25.883Z,62.13
2019-05-17T14:24:54.346Z,62.83
2019-05-17T14:27:22.774Z,62.20
2019-05-17T14:29:51.330Z,61.77
2019-05-17T14:32:19.873Z,62.54
2019-05-17T14:34:48.337Z,62.28
2019-05-17T14:37:16.786Z,63.13
2019-05-17T14:39:45.325Z,62.37
2019-05-17T14:42:15.385Z,63.37
2019-05-17T14:49:52.540Z,63.32
2019-05-17T14:52:20.962Z,63.87
2019-05-17T14:54:49.681Z,62.35
2019-05-17T14:57:18.186Z,64.01
2019-05-17T14:59:46.664Z,61.49
2019-05-17T15:02:15.117Z,61.63
2019-05-17T15:04:43.574Z,60.67
2019-05-17T15:07:12.124Z,60.48
2019-05-17T15:09:40.594Z,60.29
2019-05-17T15:12:09.145Z,59.23
2019-05-17T15:14:37.613Z,60.37
2019-05-17T15:17:22.139Z,59.22
2019-05-17T15:20:25.708Z,59.90
2019-05-17T15:26:21.623Z,59.64
2019-05-17T15:28:50.079Z,59.35
2019-05-17T15:31:18.565Z,60.04
2019-05-17T15:33:48.663Z,60.94
2019-05-17T15:36:22.841Z,59.48
2019-05-17T15:38:51.345Z,60.15
2019-05-17T15:41:19.825Z,59.65
2019-05-17T15:43:48.380Z,60.70
2019-05-17T15:46:18.545Z,60.19
2019-05-17T15:48:47.020Z,60.35
2019-05-17T15:51:15.476Z,59.58
2019-05-17T15:53:44.010Z,60.43
2019-05-17T15:56:12.433Z,58.72
2019-05-17T15:58:40.880Z,59.85
2019-05-17T16:01:09.349Z,59.48
2019-05-17T16:03:37.831Z,60.24
2019-05-17T16:06:07.798Z,59.83
2019-05-17T16:08:36.259Z,59.47
2019-05-17T16:11:04.838Z,61.10
2019-05-17T16:13:33.961Z,59.91
2019-05-17T16:16:04.165Z,61.61
2019-05-17T16:18:34.981Z,61.55
2019-05-17T16:21:04.178Z,61.60
2019-05-17T16:23:32.681Z,62.28
2019-05-17T16:26:01.472Z,61.94
2019-05-17T16:28:29.956Z,60.52
2019-05-17T16:31:00.474Z,60.38
2019-05-17T16:33:30.637Z,60.83
2019-05-17T16:35:59.059Z,61.71
2019-05-17T16:38:27.518Z,62.93
2019-05-17T16:40:56.000Z,60.56
2019-05-17T16:43:24.442Z,61.78
2019-05-17T16:45:52.910Z,61.89
2019-05-17T16:48:21.451Z,62.32
2019-05-17T16:50:49.926Z,62.68
2019-05-17T16:53:18.416Z,63.01
2019-05-17T16:55:46.930Z,64.47
2019-05-17T16:58:16.951Z,64.40
2019-05-17T17:00:51.390Z,64.83
2019-05-17T17:03:19.919Z,65.44
2019-05-17T17:05:48.369Z,65.41
2019-05-17T17:08:16.822Z,65.58
2019-05-17T17:10:45.326Z,65.89
2019-05-17T17:13:13.772Z,66.17
2019-05-17T17:15:42.226Z,66.00
2019-05-17T17:18:10.723Z,66.17
2019-05-17T17:20:39.232Z,66.35
2019-05-17T17:23:10.197Z,66.52
2019-05-17T17:25:38.687Z,66.89
2019-05-17T17:28:07.161Z,66.84
2019-05-17T17:30:37.993Z,66.86
2019-05-17T17:33:05.760Z,67.24
2019-05-17T17:35:34.265Z,67.37
2019-05-17T17:38:02.737Z,68.31
2019-05-17T17:40:31.269Z,68.03
2019-05-17T17:42:59.724Z,67.75
2019-05-17T17:45:28.338Z,67.80
2019-05-17T17:47:56.783Z,67.97
2019-05-17T17:50:25.265Z,69.12
2019-05-17T17:52:53.933Z,68.46
2019-05-17T17:55:22.507Z,69.04
2019-05-17T17:57:51.382Z,68.86
2019-05-17T18:00:20.646Z,70.06
2019-05-17T18:02:49.138Z,68.34
2019-05-17T18:05:17.719Z,69.13
2019-05-17T18:07:46.253Z,69.48
2019-05-17T18:10:26.809Z,69.68
2019-05-17T18:12:55.268Z,70.43
2019-05-17T18:15:38.798Z,70.35
2019-05-17T18:18:07.207Z,70.24
2019-05-17T18:20:35.764Z,71.16
2019-05-17T18:23:04.388Z,70.91
2019-05-17T18:25:33.015Z,70.84
2019-05-17T18:28:01.478Z,70.95
2019-05-17T18:31:03.261Z,71.39
2019-05-17T18:33:33.836Z,71.80
2019-05-17T18:36:02.335Z,71.21
2019-05-17T18:38:32.689Z,71.10
2019-05-17T18:41:01.143Z,71.33
2019-05-17T18:43:29.603Z,71.49
2019-05-17T18:45:58.064Z,71.60
2019-05-17T18:48:26.490Z,72.02
2019-05-17T18:50:54.925Z,72.21
2019-05-17T18:53:23.356Z,72.58
2019-05-17T18:55:54.913Z,72.88
2019-05-17T18:58:23.333Z,72.71
2019-05-17T19:00:51.782Z,72.85
2019-05-17T19:03:20.232Z,73.06
2019-05-17T19:05:48.681Z,73.46
2019-05-17T19:08:17.226Z,73.28
2019-05-17T19:10:45.725Z,73.46
2019-05-17T19:13:14.201Z,73.37
2019-05-17T19:15:42.671Z,73.79
2019-05-17T19:18:11.669Z,73.91
2019-05-17T19:20:40.174Z,73.82
2019-05-17T19:23:09.703Z,74.15
2019-05-17T19:25:39.907Z,74.51
2019-05-17T19:28:08.411Z,74.40
2019-05-17T19:30:36.864Z,75.94
2019-05-17T19:33:05.951Z,76.29
2019-05-17T19:35:35.204Z,75.98
2019-05-17T19:38:07.456Z,75.86
2019-05-17T19:40:35.915Z,75.84
2019-05-17T19:43:04.404Z,75.76
2019-05-17T19:45:32.858Z,75.93
2019-05-17T19:48:01.360Z,75.99
2019-05-17T19:50:30.176Z,76.17
2019-05-17T19:52:58.646Z,75.62
2019-05-17T19:55:27.996Z,75.89
2019-05-17T19:57:56.558Z,76.03
2019-05-17T20:00:25.151Z,75.97
2019-05-17T20:02:53.616Z,76.10
2019-05-17T20:05:22.030Z,75.85
2019-05-17T20:07:51.718Z,75.46
2019-05-17T20:10:23.225Z,75.57
2019-05-17T20:12:51.466Z,75.29
2019-05-17T20:15:33.625Z,75.51
2019-05-17T20:17:50.029Z,75.30
2019-05-17T20:20:18.599Z,74.90
2019-05-17T20:22:48.681Z,74.27
2019-05-17T20:25:17.457Z,74.05
2019-05-17T20:27:45.894Z,74.07
2019-05-17T20:30:17.209Z,74.33
2019-05-17T20:32:54.231Z,74.32
2019-05-17T20:35:37.656Z,74.01
2019-05-17T20:38:06.950Z,74.42
2019-05-17T20:40:36.400Z,73.73
2019-05-17T20:43:13.984Z,73.50
2019-05-17T20:45:44.128Z,73.98
2019-05-17T20:48:14.190Z,73.30
2019-05-17T20:50:46.381Z,73.26
2019-05-17T20:53:18.863Z,73.26
2019-05-17T20:55:46.466Z,73.86
2019-05-17T20:58:14.916Z,75.29
2019-05-17T21:00:46.512Z,76.35
2019-05-17T21:03:15.070Z,76.42
2019-05-17T21:05:45.205Z,77.94
2019-05-17T21:08:15.225Z,79.24
2019-05-17T21:10:45.123Z,79.47
2019-05-17T21:13:13.580Z,79.55
2019-05-17T21:15:47.749Z,79.29
2019-05-17T21:18:14.459Z,80.07
2019-05-17T21:20:42.923Z,80.11
2019-05-17T21:23:11.381Z,79.97
2019-05-17T21:25:39.817Z,80.31
2019-05-17T21:28:08.722Z,80.45
2019-05-17T21:30:37.181Z,80.62
2019-05-17T21:33:05.721Z,80.75
2019-05-17T21:35:34.129Z,80.78
2019-05-17T21:38:04.043Z,81.63
2019-05-17T21:40:33.059Z,80.51
2019-05-17T21:43:01.514Z,80.85
2019-05-17T21:45:29.959Z,81.85
2019-05-17T21:47:58.451Z,81.79
2019-05-17T21:50:26.861Z,81.89
2019-05-17T21:52:55.338Z,81.20
2019-05-17T21:55:23.811Z,80.93
2019-05-17T21:57:52.297Z,80.80
2019-05-17T22:00:51.134Z,81.87
2019-05-17T22:03:19.712Z,81.79
2019-05-17T22:05:48.280Z,82.05
2019-05-17T22:08:16.733Z,83.37
2019-05-17T22:10:46.326Z,82.74
2019-05-17T22:13:14.785Z,82.37
2019-05-17T22:15:43.265Z,82.22
2019-05-17T22:18:11.721Z,83.04
2019-05-17T22:20:40.131Z,82.00
2019-05-17T22:23:08.582Z,81.30
2019-05-17T22:25:37.065Z,82.51
2019-05-17T22:28:05.615Z,82.04
2019-05-17T22:30:34.073Z,82.18
2019-05-17T22:33:02.510Z,82.28
2019-05-17T22:35:30.940Z,82.23
2019-05-17T22:37:59.432Z,83.02
2019-05-17T22:40:27.845Z,83.23
2019-05-17T22:42:56.488Z,83.45
2019-05-17T22:45:24.953Z,83.99
2019-05-17T22:47:53.368Z,83.53
2019-05-17T22:50:21.806Z,83.78
2019-05-17T22:52:51.938Z,84.30
2019-05-17T22:55:20.391Z,84.56
2019-05-17T22:57:48.863Z,85.14
2019-05-17T23:00:17.713Z,85.26
2019-05-17T23:02:46.141Z,85.30
2019-05-17T23:05:14.669Z,85.31
2019-05-17T23:07:43.090Z,85.33
2019-05-17T23:10:11.741Z,85.82
2019-05-17T23:12:40.229Z,85.43
2019-05-17T23:15:09.225Z,86.20
2019-05-17T23:17:37.697Z,86.21
2019-05-17T23:20:06.920Z,86.08
2019-05-17T23:22:35.372Z,86.03
2019-05-17T23:25:05.269Z,86.32
2019-05-17T23:27:33.702Z,86.31
2019-05-17T23:30:02.128Z,86.15
2019-05-17T23:32:30.599Z,86.44
2019-05-17T23:34:59.055Z,86.65
2019-05-17T23:37:27.494Z,86.56
2019-05-17T23:39:56.012Z,87.02
2019-05-17T23:42:24.447Z,86.57
2019-05-17T23:44:55.203Z,86.23
2019-05-17T23:47:23.620Z,86.08
2019-05-17T23:49:52.146Z,86.28
2019-05-17T23:52:20.529Z,87.02
2019-05-17T23:54:49.021Z,86.76
2019-05-17T23:57:17.633Z,86.59
2019-05-17T23:59:46.122Z,86.52
